Weather History for KSPF - April, 2013

Change the Weather History Date:

Monday, April 29, 2013

  Actual Average (KEFC) Record (KEFC)
Temperature  
Mean Temperature 54 °F -  
Max Temperature 68 °F 61 °F 89 °F (1949)
Min Temperature 39 °F 35 °F 20 °F (1956)
Degree Days  
Heating Degree Days 12    
Growing Degree Days 4 (Base 50)    
Moisture  
Dew Point 36 °F    
Average Humidity 55    
Maximum Humidity 93    
Minimum Humidity 26    
Precipitation  
Precipitation 0.08 in - - ()
Sea Level Pressure  
Sea Level Pressure 29.64 in    
Wind  
Wind Speed 8 mph (West)    
Max Wind Speed 28 mph    
Max Gust Speed 46 mph    
Visibility 10 miles    
Events Rain    
Averages and records for this station are not official NWS values.
T = Trace of Precipitation, MM = Missing Value Source: NWS Daily Summary

Daily Weather History Graph

Daily Weather History Graph

Search for Another Location

Airport or City:

Trip Planner

Search our weather history database for the weather conditions in past years. The results will help you decide how hot, cold, wet, or windy it might be!

Date:

Astronomy

Apr. 29, 2013 Rise Set
Actual Time 6:48 AM CDT 8:57 PM CDT
Civil Twilight 6:16 AM CDT 9:29 PM CDT
Nautical Twilight 5:37 AM CDT 10:08 PM CDT
Astronomical Twilight 4:53 AM CDT 10:52 PM CDT
Moon 12:33 AM CDT (4/29) 10:07 AM CDT (4/29)
Length of Visible Light 15h 13m
Length of Day
14h 09m
Waning Gibbous, 80% of the Moon is Illuminated
Apr 29
Waning Gibbous
May 2
Last Quarter
May 9
New
May 17
First Quarter
May 24
Full

Hourly Weather History & Observations

Time (CDT) Temp. Windchill Dew Point Humidity Pressure Visibility Wind Dir Wind Speed Gust Speed Precip Events Conditions
12:15 AM 39.2 °F 37.0 °F 35.6 °F 87% 29.90 in 10.0 mi SE 3.5 mph - N/A   Clear
12:55 AM 39.2 °F 37.0 °F 37.4 °F 93% 29.89 in 10.0 mi South 3.5 mph - N/A   Clear
1:15 AM 41.0 °F 37.1 °F 35.6 °F 81% 29.88 in 10.0 mi SSE 5.8 mph - N/A   Clear
1:35 AM 41.0 °F 37.1 °F 37.4 °F 87% 29.87 in 10.0 mi SE 5.8 mph - N/A   Clear
1:55 AM 41.0 °F 38.0 °F 37.4 °F 87% 29.86 in 10.0 mi SE 4.6 mph - N/A   Clear
2:15 AM 39.2 °F 35.9 °F 35.6 °F 87% 29.85 in 10.0 mi ESE 4.6 mph - N/A   Clear
2:35 AM 39.2 °F 35.9 °F 35.6 °F 87% 29.84 in 10.0 mi East 4.6 mph - N/A   Clear
2:55 AM 41.0 °F 39.0 °F 35.6 °F 81% 29.83 in 10.0 mi NNE 3.5 mph - N/A   Clear
3:15 AM 41.0 °F 38.0 °F 35.6 °F 81% 29.82 in 10.0 mi ESE 4.6 mph - N/A   Clear
3:35 AM 41.0 °F - 35.6 °F 81% 29.81 in 10.0 mi Calm Calm - N/A   Partly Cloudy
3:55 AM 41.0 °F 38.0 °F 35.6 °F 81% 29.80 in 10.0 mi ESE 4.6 mph - N/A   Partly Cloudy
4:15 AM 41.0 °F - 35.6 °F 81% 29.79 in 10.0 mi Calm Calm - N/A   Partly Cloudy
4:35 AM 44.6 °F 42.2 °F 35.6 °F 71% 29.78 in 10.0 mi North 4.6 mph - N/A   Clear
4:55 AM 44.6 °F - 35.6 °F 71% 29.78 in 10.0 mi Calm Calm - N/A   Clear
5:15 AM 41.0 °F - 35.6 °F 81% 29.77 in 10.0 mi Calm Calm - N/A   Clear
5:35 AM 44.6 °F - 35.6 °F 71% 29.75 in 10.0 mi Calm Calm - N/A   Clear
5:55 AM 44.6 °F 42.2 °F 35.6 °F 71% 29.73 in 10.0 mi NE 4.6 mph - N/A   Clear
6:15 AM 48.2 °F - 35.6 °F 62% 29.72 in 10.0 mi North 4.6 mph - N/A   Clear
6:35 AM 46.4 °F 43.5 °F 35.6 °F 66% 29.71 in 10.0 mi NNW 5.8 mph - N/A   Clear
6:55 AM 48.2 °F - 35.6 °F 62% 29.71 in 10.0 mi North 6.9 mph - N/A   Clear
7:15 AM 50.0 °F - 35.6 °F 58% 29.71 in 10.0 mi Calm Calm - N/A   Clear
7:35 AM 51.8 °F - 35.6 °F 54% 29.70 in 10.0 mi Calm Calm - N/A   Clear
7:55 AM 53.6 °F - 37.4 °F 54% 29.69 in 10.0 mi NE 5.8 mph - N/A   Clear
8:15 AM 53.6 °F - 35.6 °F 51% 29.68 in 10.0 mi SSW 6.9 mph - N/A   Clear
8:35 AM 55.4 °F - 37.4 °F 51% 29.67 in 10.0 mi SSW 15.0 mph 25.3 mph N/A   Clear
8:55 AM 55.4 °F - 37.4 °F 51% 29.65 in 10.0 mi SSW 23.0 mph 29.9 mph N/A   Clear
9:15 AM 57.2 °F - 37.4 °F 48% 29.64 in 10.0 mi SSW 24.2 mph 32.2 mph N/A   Clear
9:35 AM 57.2 °F - 37.4 °F 48% 29.63 in 10.0 mi SSW 25.3 mph 32.2 mph N/A   Clear
9:55 AM 59.0 °F - 35.6 °F 42% 29.63 in 10.0 mi SW 24.2 mph 31.1 mph N/A   Clear
10:15 AM 59.0 °F - 35.6 °F 42% 29.62 in 10.0 mi SSW 20.7 mph 28.8 mph N/A   Clear
10:35 AM 62.6 °F - 33.8 °F 34% 29.62 in 10.0 mi SW 16.1 mph 20.7 mph N/A   Clear
10:55 AM 62.6 °F - 33.8 °F 34% 29.61 in 10.0 mi SW 20.7 mph 28.8 mph N/A   Clear
11:15 AM 62.6 °F - 32.0 °F 32% 29.61 in 10.0 mi WSW 19.6 mph 28.8 mph N/A   Clear
11:35 AM 62.6 °F - 33.8 °F 34% 29.62 in 10.0 mi WSW 15.0 mph 23.0 mph N/A   Clear
11:55 AM 64.4 °F - 33.8 °F 32% 29.60 in 10.0 mi SW 15.0 mph 21.9 mph N/A   Clear
12:15 PM 64.4 °F - 35.6 °F 34% 29.60 in 10.0 mi WSW 9.2 mph 18.4 mph N/A   Clear
12:35 PM 64.4 °F - 33.8 °F 32% 29.60 in 10.0 mi West 11.5 mph 16.1 mph N/A   Clear
12:55 PM 64.4 °F - 32.0 °F 30% 29.59 in 10.0 mi WSW 10.4 mph - N/A   Clear
1:15 PM 64.4 °F - 32.0 °F 30% 29.58 in 10.0 mi West 6.9 mph - N/A   Clear
1:35 PM 66.2 °F - 32.0 °F 28% 29.56 in 10.0 mi West 9.2 mph - N/A   Clear
1:55 PM 66.2 °F - 32.0 °F 28% 29.55 in 10.0 mi West 12.7 mph 18.4 mph N/A   Clear
2:15 PM 66.2 °F - 30.2 °F 26% 29.54 in 10.0 mi SW 12.7 mph 21.9 mph N/A   Clear
2:35 PM 66.2 °F - 32.0 °F 28% 29.54 in 10.0 mi SW 10.4 mph 17.3 mph N/A   Clear
2:55 PM 66.2 °F - 32.0 °F 28% 29.53 in 10.0 mi WSW 13.8 mph - N/A   Clear
3:15 PM 66.2 °F - 32.0 °F 28% 29.52 in 10.0 mi WSW 10.4 mph - N/A   Clear
3:35 PM 66.2 °F - 32.0 °F 28% 29.51 in 10.0 mi West 11.5 mph - N/A   Clear
3:55 PM 68.0 °F - 32.0 °F 26% 29.50 in 10.0 mi West 9.2 mph 19.6 mph N/A   Clear
4:15 PM 68.0 °F - 32.0 °F 26% 29.48 in 10.0 mi WSW 9.2 mph 16.1 mph N/A   Clear
4:35 PM 68.0 °F - 32.0 °F 26% 29.47 in 10.0 mi West 5.8 mph - N/A   Clear
4:55 PM 68.0 °F - 32.0 °F 26% 29.46 in 10.0 mi North 4.6 mph - N/A   Clear
5:15 PM 68.0 °F - 35.6 °F 30% 29.44 in 10.0 mi ENE 8.1 mph - N/A   Clear
5:35 PM 66.2 °F - 35.6 °F 32% 29.44 in 10.0 mi NE 10.4 mph - N/A   Clear
5:55 PM 66.2 °F - 35.6 °F 32% 29.44 in 10.0 mi NE 8.1 mph - N/A   Clear
6:15 PM 64.4 °F - 35.6 °F 34% 29.43 in 10.0 mi NNE 5.8 mph - N/A   Clear
6:35 PM 64.4 °F - 37.4 °F 37% 29.43 in 10.0 mi NE 6.9 mph - N/A   Clear
6:55 PM 62.6 °F - 39.2 °F 42% 29.43 in 10.0 mi NE 5.8 mph - N/A   Clear
7:15 PM 62.6 °F - 39.2 °F 42% 29.43 in 10.0 mi East 5.8 mph - N/A   Clear
7:35 PM 60.8 °F - 37.4 °F 42% 29.44 in 10.0 mi NNW 4.6 mph - N/A   Clear
7:55 PM 60.8 °F - 37.4 °F 42% 29.45 in 10.0 mi Calm Calm - N/A   Mostly Cloudy
8:15 PM 59.0 °F - 35.6 °F 42% 29.46 in 10.0 mi North 9.2 mph - N/A   Overcast
8:35 PM 48.2 °F - 39.2 °F 71% 29.56 in 3.0 mi NW 27.6 mph 46.0 mph N/A   Haze
8:55 PM 46.4 °F 39.2 °F 41.0 °F 81% 29.58 in 4.0 mi NW 18.4 mph 26.5 mph N/A Rain Light Rain
9:15 PM 44.6 °F 37.8 °F 41.0 °F 87% 29.62 in 5.0 mi WNW 15.0 mph - 0.01 in Rain Light Rain
9:35 PM 44.6 °F 37.4 °F 41.0 °F 87% 29.64 in 5.0 mi WNW 16.1 mph 28.8 mph 0.03 in Rain Light Rain
10:15 PM 42.8 °F 34.3 °F 39.2 °F 87% 29.65 in 10.0 mi WNW 19.6 mph 24.2 mph N/A Rain Light Rain
10:35 PM 42.8 °F 36.6 °F 39.2 °F 87% 29.65 in 10.0 mi WNW 11.5 mph 18.4 mph N/A   Overcast
10:55 PM 42.8 °F 35.4 °F 39.2 °F 87% 29.67 in 10.0 mi WNW 15.0 mph 20.7 mph N/A Rain Light Rain
11:15 PM 41.0 °F 32.8 °F 37.4 °F 87% 29.66 in 5.0 mi WNW 16.1 mph 26.5 mph 0.02 in Rain Light Rain
11:35 PM 41.0 °F 32.8 °F 37.4 °F 87% 29.66 in 7.0 mi West 16.1 mph 21.9 mph 0.04 in Rain Light Rain
11:55 PM 41.0 °F 31.1 °F 37.4 °F 87% 29.67 in 10.0 mi WNW 23.0 mph 28.8 mph 0.05 in   Mostly Cloudy